This is the latest recevied weather packets stored in our database for station/object N5CNB. If no packets are shown the sender has not sent any weather packets the latest 10 day(s).
| Time | Temp. | Humidity | Pressure | Rain* | Wind** | Luminosity | Snow |
|---|---|---|---|---|---|---|---|
| 1777503619 | 28.89° C | 71% | 1009.5 hPa | 0 mm | - | - | - |
| 1777502723 | 29.44° C | 70% | 1009 hPa | 0 mm | - | - | - |
| 1777501819 | 29.44° C | 72% | 1009 hPa | 0 mm | - | - | - |
| 1777500913 | 29.44° C | 72% | 1009.3 hPa | 0 mm | - | - | - |
| 1777500017 | 28.89° C | 74% | 1009.3 hPa | 0 mm | - | - | - |
| 1777499121 | 28.89° C | 76% | 1009.5 hPa | 0 mm | - | - | - |
| 1777498223 | 27.78° C | 78% | 1010.2 hPa | 0 mm | - | - | - |
| 1777497310 | 27.78° C | 78% | 1011 hPa | 0 mm | - | - | - |
| 1777496402 | 27.78° C | 76% | 1010.6 hPa | 0 mm | - | - | - |
| 1777495503 | 28.33° C | 76% | 1010.8 hPa | 0 mm | - | - | - |
| 1777494605 | 28.33° C | 75% | 1011 hPa | 0 mm | - | - | - |
| 1777493716 | 28.33° C | 74% | 1010.9 hPa | 0 mm | - | - | - |
| 1777492819 | 28.89° C | 73% | 1011.1 hPa | 0 mm | - | - | - |
| 1777491901 | 28.89° C | 73% | 1011.2 hPa | 0 mm | - | - | - |
| 1777491001 | 28.89° C | 75% | 1011.2 hPa | 0 mm | - | - | - |
| 1777490106 | 28.33° C | 73% | 1011.4 hPa | 0 mm | - | - | - |
| 1777489213 | 28.33° C | 74% | 1011.5 hPa | 0 mm | - | - | - |
| 1777488312 | 28.89° C | 71% | 1011.7 hPa | 0 mm | - | - | - |
| 1777487402 | 28.33° C | 74% | 1012.1 hPa | 0 mm | - | - | - |
| 1777486505 | 28.33° C | 74% | 1012.4 hPa | 0 mm | - | - | - |
| 1777485606 | 28.33° C | 75% | 1012.2 hPa | 0 mm | - | - | - |
| 1777484712 | 28.89° C | 72% | 1012.7 hPa | 0 mm | - | - | - |
| 1777483817 | 28.89° C | 71% | 1012.9 hPa | 0 mm | - | - | - |
| 1777482901 | 28.89° C | 74% | 1012.8 hPa | 0 mm | - | - | - |
| 1777482005 | 28.89° C | 73% | 1013.1 hPa | 0 mm | - | - | - |
* Rain latest hour (hover to see other rain measurements)
** Current wind speed in m/s (hover to see current wind gust speed)